createdAt,value
2023-04-16T00:00:13.188Z,12.80
2023-04-16T00:03:04.668Z,12.50
2023-04-16T00:05:33.995Z,16.30
2023-04-16T00:08:02.591Z,15.90
2023-04-16T00:10:37.579Z,12.30
2023-04-16T00:13:08.890Z,11.30
2023-04-16T00:15:40.110Z,15.20
2023-04-16T00:18:08.439Z,14.80
2023-04-16T00:20:39.381Z,18.70
2023-04-16T00:23:09.199Z,14.80
2023-04-16T00:25:39.502Z,15.30
2023-04-16T00:28:09.021Z,14.30
2023-04-16T00:30:38.571Z,11.80
2023-04-16T00:33:06.896Z,11.60
2023-04-16T00:35:35.201Z,13.90
2023-04-16T00:38:04.153Z,19.00
2023-04-16T00:40:32.507Z,12.90
2023-04-16T00:43:00.934Z,14.60
2023-04-16T00:45:29.451Z,13.60
2023-04-16T00:48:00.452Z,14.80
2023-04-16T00:50:29.866Z,11.70
2023-04-16T00:52:58.822Z,13.70
2023-04-16T00:55:27.884Z,11.50
2023-04-16T00:57:56.212Z,11.00
2023-04-16T01:00:26.600Z,15.70
2023-04-16T01:02:55.980Z,16.70
2023-04-16T01:05:26.665Z,15.50
2023-04-16T01:08:00.392Z,13.20
2023-04-16T01:10:28.704Z,11.90
2023-04-16T01:12:56.953Z,10.30
2023-04-16T01:15:25.559Z,16.80
2023-04-16T01:17:53.863Z,13.00
2023-04-16T01:20:22.139Z,12.50
2023-04-16T01:22:50.505Z,12.80
2023-04-16T01:25:18.818Z,12.80
2023-04-16T01:27:51.086Z,12.90
2023-04-16T01:30:19.398Z,13.90
2023-04-16T01:32:55.014Z,14.30
2023-04-16T01:35:23.684Z,14.20
2023-04-16T01:37:52.342Z,14.20
2023-04-16T01:40:21.241Z,12.90
2023-04-16T01:42:49.531Z,12.60
2023-04-16T01:45:18.051Z,12.70
2023-04-16T01:47:47.276Z,13.50
2023-04-16T01:50:15.626Z,19.50
2023-04-16T01:52:44.005Z,15.50
2023-04-16T01:55:12.669Z,14.60
2023-04-16T01:57:41.837Z,16.90
2023-04-16T02:00:10.577Z,15.10
2023-04-16T02:02:47.519Z,14.60
2023-04-16T02:05:17.476Z,17.80
2023-04-16T02:07:45.694Z,13.70
2023-04-16T02:10:13.999Z,15.10
2023-04-16T02:12:42.262Z,14.70
2023-04-16T02:15:11.298Z,15.90
2023-04-16T02:17:39.877Z,16.90
2023-04-16T02:20:12.218Z,15.60
2023-04-16T02:22:45.093Z,18.20
2023-04-16T02:25:14.928Z,14.40
2023-04-16T02:27:43.475Z,19.30
2023-04-16T02:30:22.417Z,19.40
2023-04-16T02:32:50.719Z,16.30
2023-04-16T02:35:18.942Z,18.90
2023-04-16T02:37:47.184Z,15.60
2023-04-16T02:40:17.720Z,20.70
2023-04-16T02:42:46.252Z,17.70
2023-04-16T02:45:16.654Z,19.90
2023-04-16T02:47:45.185Z,19.10
2023-04-16T02:50:13.801Z,16.80
2023-04-16T02:52:42.465Z,18.70
2023-04-16T02:55:11.487Z,17.60
2023-04-16T02:57:40.921Z,16.00
2023-04-16T03:00:09.985Z,21.20
2023-04-16T03:02:38.936Z,20.00
2023-04-16T03:05:07.573Z,14.70
2023-04-16T03:07:35.793Z,20.30
2023-04-16T03:10:04.368Z,16.80
2023-04-16T03:12:33.253Z,18.20
2023-04-16T03:15:01.674Z,17.50
2023-04-16T03:17:29.959Z,20.70
2023-04-16T03:19:58.436Z,21.70
2023-04-16T03:22:27.204Z,25.30
2023-04-16T03:24:55.424Z,20.50
2023-04-16T03:27:23.664Z,18.00
2023-04-16T03:29:51.907Z,20.90
2023-04-16T03:32:20.179Z,13.60
2023-04-16T03:34:48.649Z,14.40
2023-04-16T03:37:17.017Z,13.20
2023-04-16T03:39:45.664Z,15.00
2023-04-16T03:42:14.485Z,14.50
2023-04-16T03:44:42.991Z,16.40
2023-04-16T03:47:11.898Z,13.30
2023-04-16T03:49:40.728Z,12.50
2023-04-16T03:52:09.752Z,15.60
2023-04-16T03:54:38.024Z,14.90
2023-04-16T03:57:14.837Z,14.50
2023-04-16T03:59:43.065Z,12.10
2023-04-16T04:02:14.190Z,13.40
2023-04-16T04:04:44.019Z,12.50
2023-04-16T04:07:12.552Z,15.80
2023-04-16T04:09:41.392Z,14.70
2023-04-16T04:12:10.766Z,15.20
2023-04-16T04:14:40.318Z,11.90
2023-04-16T04:17:09.288Z,19.70
2023-04-16T04:19:40.247Z,13.30
2023-04-16T04:22:11.114Z,13.00
2023-04-16T04:24:39.548Z,13.30
2023-04-16T04:27:07.882Z,16.50
2023-04-16T04:29:36.239Z,17.10
2023-04-16T04:32:04.668Z,17.30
2023-04-16T04:34:32.976Z,25.10
2023-04-16T04:37:01.209Z,14.40
2023-04-16T04:39:29.543Z,15.70
2023-04-16T04:41:58.002Z,14.90
2023-04-16T04:44:26.232Z,16.70
2023-04-16T04:46:54.684Z,12.80
2023-04-16T04:49:22.997Z,16.20
2023-04-16T04:51:51.411Z,18.30
2023-04-16T04:54:19.772Z,13.40
2023-04-16T04:56:48.110Z,21.80
2023-04-16T04:59:16.400Z,15.10
2023-04-16T05:01:45.617Z,11.70
2023-04-16T05:04:14.063Z,13.00
2023-04-16T05:06:43.917Z,13.80
2023-04-16T05:09:13.503Z,12.80
2023-04-16T05:11:42.407Z,11.20
2023-04-16T05:14:10.581Z,15.20
2023-04-16T05:16:38.857Z,11.20
2023-04-16T05:19:07.274Z,15.90
2023-04-16T05:21:35.657Z,12.40
2023-04-16T05:24:04.508Z,15.00
2023-04-16T05:26:33.041Z,10.90
2023-04-16T05:29:01.336Z,9.30
2023-04-16T05:31:29.635Z,12.10
2023-04-16T05:33:58.409Z,10.80
2023-04-16T05:36:26.745Z,11.30
2023-04-16T05:38:55.746Z,10.60
2023-04-16T05:41:23.963Z,11.30
2023-04-16T05:43:53.265Z,8.10
2023-04-16T05:46:21.613Z,11.40
2023-04-16T05:48:50.076Z,10.20
2023-04-16T05:51:18.517Z,14.00
2023-04-16T05:53:46.832Z,12.40
2023-04-16T05:56:15.098Z,15.80
2023-04-16T05:58:43.491Z,9.80
2023-04-16T06:01:11.861Z,9.00
2023-04-16T06:03:40.428Z,8.50
2023-04-16T06:06:09.412Z,8.70
2023-04-16T06:08:37.653Z,7.70
2023-04-16T06:11:07.182Z,9.40
2023-04-16T06:13:35.490Z,9.20
2023-04-16T06:16:03.785Z,10.80
2023-04-16T06:18:33.327Z,10.00
2023-04-16T06:21:01.789Z,10.50
2023-04-16T06:23:31.684Z,8.80
2023-04-16T06:26:00.759Z,7.90
2023-04-16T06:28:29.605Z,11.70
2023-04-16T06:30:57.845Z,9.20
2023-04-16T06:33:26.498Z,9.60
2023-04-16T06:35:54.973Z,9.80
2023-04-16T06:38:23.214Z,9.60
2023-04-16T06:40:51.547Z,9.80
2023-04-16T06:43:20.014Z,5.60
2023-04-16T06:45:48.256Z,8.00
2023-04-16T06:48:17.280Z,7.30
2023-04-16T06:50:45.964Z,6.90
2023-04-16T06:53:16.170Z,10.30
2023-04-16T06:55:44.411Z,10.70
2023-04-16T06:58:12.589Z,8.00
2023-04-16T07:00:40.922Z,14.50
2023-04-16T07:03:09.267Z,7.60
2023-04-16T07:05:37.628Z,9.30
2023-04-16T07:08:05.954Z,8.20
2023-04-16T07:10:34.153Z,6.80
2023-04-16T07:13:02.918Z,12.90
2023-04-16T07:15:31.112Z,11.10
2023-04-16T07:17:59.359Z,16.00
2023-04-16T07:20:27.936Z,19.80
2023-04-16T07:22:56.573Z,10.00
2023-04-16T07:25:25.252Z,14.40
2023-04-16T07:27:53.486Z,11.20
2023-04-16T07:30:21.745Z,7.70
2023-04-16T07:32:52.540Z,16.10
2023-04-16T07:35:21.461Z,6.60
2023-04-16T07:37:50.449Z,6.70
2023-04-16T07:40:20.135Z,11.00
2023-04-16T07:42:48.433Z,7.70
2023-04-16T07:45:17.954Z,12.00
2023-04-16T07:47:46.355Z,10.00
2023-04-16T07:50:14.669Z,12.70
2023-04-16T07:52:43.851Z,14.40
2023-04-16T07:55:12.049Z,10.80
2023-04-16T07:57:41.716Z,8.90
2023-04-16T08:00:11.534Z,10.60
2023-04-16T08:02:43.869Z,14.20
2023-04-16T08:05:13.647Z,13.50
2023-04-16T08:07:42.986Z,9.80
2023-04-16T08:10:13.177Z,7.50
2023-04-16T08:12:41.492Z,8.80
2023-04-16T08:15:11.687Z,10.10
2023-04-16T08:17:39.912Z,15.70
2023-04-16T08:20:08.630Z,6.60
2023-04-16T08:22:37.157Z,16.90
2023-04-16T08:25:05.632Z,9.20
2023-04-16T08:27:34.392Z,11.20
2023-04-16T08:30:02.732Z,8.60
2023-04-16T08:32:33.591Z,12.50
2023-04-16T08:35:02.067Z,10.70
2023-04-16T08:37:30.369Z,13.40
2023-04-16T08:39:59.693Z,12.00
2023-04-16T08:42:41.937Z,12.40
2023-04-16T08:45:16.334Z,9.70
2023-04-16T08:47:52.217Z,7.20
2023-04-16T08:50:26.317Z,11.70
2023-04-16T08:53:00.061Z,9.70
2023-04-16T08:55:38.117Z,11.90
2023-04-16T08:58:20.053Z,11.90
2023-04-16T09:00:49.631Z,13.10
2023-04-16T09:03:20.345Z,8.60
2023-04-16T09:05:50.781Z,6.90
2023-04-16T09:08:20.452Z,8.20
2023-04-16T09:10:50.661Z,9.30
2023-04-16T09:13:20.736Z,8.50
2023-04-16T09:15:53.490Z,13.50
2023-04-16T09:18:21.824Z,17.40
2023-04-16T09:20:52.462Z,10.40
2023-04-16T09:23:20.739Z,9.00
2023-04-16T09:25:48.979Z,9.00
2023-04-16T09:28:40.400Z,11.20
2023-04-16T09:31:14.152Z,13.00
2023-04-16T09:33:43.707Z,11.20
2023-04-16T09:36:12.060Z,11.20
2023-04-16T09:38:51.128Z,8.30
2023-04-16T09:41:20.869Z,11.50
2023-04-16T09:44:07.761Z,10.80
2023-04-16T09:46:41.149Z,12.60
2023-04-16T09:49:17.095Z,11.20
2023-04-16T09:54:16.281Z,15.10
2023-04-16T09:56:46.576Z,14.60
2023-04-16T09:59:22.361Z,15.30
2023-04-16T10:02:15.685Z,11.60
2023-04-16T10:04:49.290Z,10.20
2023-04-16T10:07:20.686Z,14.00
2023-04-16T10:09:52.985Z,13.60
2023-04-16T10:12:22.051Z,19.40
2023-04-16T10:14:50.901Z,13.00
2023-04-16T10:17:20.150Z,15.20
2023-04-16T10:19:49.001Z,13.20
2023-04-16T10:22:17.355Z,15.30
2023-04-16T10:24:48.598Z,16.60
2023-04-16T10:27:18.911Z,13.40
2023-04-16T10:29:48.702Z,8.50
2023-04-16T10:32:31.308Z,30.90
2023-04-16T10:35:01.966Z,16.80
2023-04-16T10:37:38.280Z,19.30
2023-04-16T10:40:27.993Z,13.20
2023-04-16T10:43:04.429Z,14.60
2023-04-16T10:45:38.396Z,18.50
2023-04-16T10:48:10.175Z,13.40
2023-04-16T10:50:39.872Z,9.90
2023-04-16T10:53:20.508Z,14.90
2023-04-16T10:56:04.821Z,16.40
2023-04-16T10:58:36.447Z,11.60
2023-04-16T11:01:15.760Z,10.80
2023-04-16T11:03:47.965Z,11.20
2023-04-16T11:06:24.308Z,17.80
2023-04-16T11:08:55.259Z,14.00
2023-04-16T11:11:24.011Z,17.80
2023-04-16T11:13:57.126Z,17.20
2023-04-16T11:16:26.820Z,14.20
2023-04-16T11:18:57.246Z,13.10
2023-04-16T11:21:27.705Z,10.10
2023-04-16T11:23:58.061Z,16.20
2023-04-16T11:26:28.681Z,13.80
2023-04-16T11:28:57.625Z,13.60
2023-04-16T11:31:27.533Z,15.20
2023-04-16T11:33:58.501Z,16.50
2023-04-16T11:36:28.096Z,14.30
2023-04-16T11:39:02.447Z,14.40
2023-04-16T11:41:30.924Z,15.90
2023-04-16T11:43:59.261Z,21.20
2023-04-16T11:46:46.827Z,19.20
2023-04-16T11:49:32.569Z,14.30
2023-04-16T11:52:00.938Z,16.10
2023-04-16T11:54:34.985Z,14.50
2023-04-16T11:57:06.659Z,15.00
2023-04-16T11:59:35.013Z,14.20
2023-04-16T12:02:03.320Z,16.30
2023-04-16T12:04:34.629Z,13.80
2023-04-16T12:07:13.689Z,18.90
2023-04-16T12:09:44.201Z,16.50
2023-04-16T12:12:38.860Z,14.90
2023-04-16T12:15:08.333Z,14.20
2023-04-16T12:17:39.300Z,15.20
2023-04-16T12:20:12.871Z,19.00
2023-04-16T12:22:46.145Z,16.40
2023-04-16T12:25:16.825Z,13.50
2023-04-16T12:27:53.419Z,12.90
2023-04-16T12:30:24.566Z,15.40
2023-04-16T12:33:13.146Z,20.50
2023-04-16T12:35:43.696Z,16.40
2023-04-16T12:38:15.300Z,19.10
2023-04-16T12:40:43.697Z,11.70
2023-04-16T12:43:12.073Z,10.10
2023-04-16T12:45:40.992Z,22.10
2023-04-16T12:48:09.403Z,14.50
2023-04-16T12:50:40.010Z,16.70
2023-04-16T12:53:09.281Z,18.50
2023-04-16T12:55:37.578Z,14.10
2023-04-16T12:58:07.016Z,20.90
2023-04-16T13:00:36.005Z,21.70
2023-04-16T13:03:04.920Z,13.50
2023-04-16T13:05:33.397Z,14.00
2023-04-16T13:08:01.732Z,18.00
2023-04-16T13:10:30.436Z,15.90
2023-04-16T13:12:58.614Z,11.40
2023-04-16T13:15:29.090Z,12.30
2023-04-16T13:17:57.438Z,15.40
2023-04-16T13:20:25.994Z,13.70
2023-04-16T13:22:55.600Z,17.60
2023-04-16T13:25:23.826Z,16.20
2023-04-16T13:27:52.811Z,15.80
2023-04-16T13:30:21.076Z,16.60
2023-04-16T13:32:49.381Z,14.00
2023-04-16T13:35:17.837Z,13.20
2023-04-16T13:37:46.088Z,20.40
2023-04-16T13:40:14.342Z,13.30
2023-04-16T13:42:42.617Z,16.60
2023-04-16T13:45:11.498Z,21.30
2023-04-16T13:47:43.649Z,22.50
2023-04-16T13:50:12.589Z,13.30
2023-04-16T13:52:41.417Z,10.10
2023-04-16T13:55:09.906Z,14.20
2023-04-16T13:57:38.209Z,16.70
2023-04-16T14:00:08.397Z,13.50
2023-04-16T14:02:37.860Z,16.00
2023-04-16T14:05:07.098Z,18.60
2023-04-16T14:07:35.629Z,17.70
2023-04-16T14:10:04.160Z,15.70
2023-04-16T14:12:32.616Z,15.50
2023-04-16T14:15:04.515Z,23.10
2023-04-16T14:17:32.941Z,17.30
2023-04-16T14:20:01.956Z,15.60
2023-04-16T14:22:30.242Z,19.60
2023-04-16T14:24:59.326Z,13.90
2023-04-16T14:27:28.949Z,15.40
2023-04-16T14:29:57.718Z,16.00
2023-04-16T14:32:26.389Z,16.90
2023-04-16T14:34:55.065Z,22.10
2023-04-16T14:37:23.540Z,16.60
2023-04-16T14:39:52.043Z,24.80
2023-04-16T14:42:20.308Z,17.00
2023-04-16T14:44:48.657Z,30.70
2023-04-16T14:47:17.282Z,19.30
2023-04-16T14:49:45.836Z,21.20
2023-04-16T14:52:14.048Z,14.30
2023-04-16T14:54:42.293Z,21.10
2023-04-16T14:57:10.490Z,17.70
2023-04-16T14:59:38.722Z,16.90
2023-04-16T15:02:08.187Z,13.50
2023-04-16T15:04:40.425Z,16.00
2023-04-16T15:07:08.772Z,25.10
2023-04-16T15:09:37.395Z,15.50
2023-04-16T15:12:05.741Z,23.70
2023-04-16T15:14:34.001Z,19.60
2023-04-16T15:17:02.252Z,18.30
2023-04-16T15:19:31.247Z,20.50
2023-04-16T15:22:01.268Z,18.00
2023-04-16T15:24:30.266Z,19.00
2023-04-16T15:26:58.474Z,15.80
2023-04-16T15:29:26.715Z,19.80
2023-04-16T15:31:54.896Z,19.60
2023-04-16T15:34:23.223Z,23.20
2023-04-16T15:36:51.569Z,18.10
2023-04-16T15:39:22.900Z,18.00
2023-04-16T15:42:00.657Z,18.10
2023-04-16T15:44:31.767Z,24.00
2023-04-16T15:47:01.395Z,22.70
2023-04-16T15:49:30.238Z,18.90
2023-04-16T15:52:01.724Z,18.00
2023-04-16T15:54:31.976Z,19.80
2023-04-16T15:57:02.032Z,17.60
2023-04-16T15:59:33.050Z,26.70
2023-04-16T16:02:02.008Z,25.40
2023-04-16T16:04:30.605Z,23.70
2023-04-16T16:07:03.300Z,17.30
2023-04-16T16:09:37.321Z,24.60
2023-04-16T16:15:07.348Z,25.20
2023-04-16T16:17:36.086Z,22.10
2023-04-16T16:20:13.487Z,21.30
2023-04-16T16:22:47.084Z,27.80
2023-04-16T16:25:18.037Z,21.60
2023-04-16T16:27:49.185Z,20.70
2023-04-16T16:30:17.426Z,19.00
2023-04-16T16:32:46.759Z,22.00
2023-04-16T16:35:15.965Z,27.10
2023-04-16T16:37:44.382Z,27.20
2023-04-16T16:40:12.835Z,19.00
2023-04-16T16:42:44.025Z,24.40
2023-04-16T16:45:12.969Z,16.30
2023-04-16T16:47:42.031Z,11.00
2023-04-16T16:50:14.209Z,20.90
2023-04-16T16:52:42.500Z,18.90
2023-04-16T16:55:11.737Z,25.10
2023-04-16T16:57:40.334Z,25.40
2023-04-16T17:00:14.414Z,19.90
2023-04-16T17:02:44.410Z,26.20
2023-04-16T17:05:13.825Z,19.70
2023-04-16T17:07:42.352Z,19.70
2023-04-16T17:10:13.212Z,16.90
2023-04-16T17:12:41.628Z,21.30
2023-04-16T17:15:11.638Z,27.60
2023-04-16T17:17:39.987Z,21.40
2023-04-16T17:20:12.574Z,26.20
2023-04-16T17:22:40.913Z,19.70
2023-04-16T17:25:09.526Z,24.90
2023-04-16T17:27:37.875Z,23.30
2023-04-16T17:30:07.108Z,24.50
2023-04-16T17:32:36.097Z,17.60
2023-04-16T17:35:05.259Z,22.90
2023-04-16T17:37:33.482Z,24.30
2023-04-16T17:40:01.807Z,26.70
2023-04-16T17:42:30.046Z,24.90
2023-04-16T17:44:58.994Z,23.00
2023-04-16T17:47:27.436Z,25.30
2023-04-16T17:49:58.795Z,21.10
2023-04-16T17:52:29.602Z,29.40
2023-04-16T17:55:01.779Z,20.90
2023-04-16T17:57:31.108Z,20.60
2023-04-16T17:59:59.492Z,25.10
2023-04-16T18:02:28.030Z,28.60
2023-04-16T18:05:00.449Z,24.70
2023-04-16T18:07:35.257Z,26.10
2023-04-16T18:10:08.084Z,19.10
2023-04-16T18:12:37.169Z,25.80
2023-04-16T18:15:07.263Z,23.30
2023-04-16T18:17:35.737Z,19.80
2023-04-16T18:20:07.270Z,22.00
2023-04-16T18:22:35.642Z,18.80
2023-04-16T18:25:04.421Z,23.80
2023-04-16T18:27:33.342Z,21.40
2023-04-16T18:30:04.341Z,26.20
2023-04-16T18:32:37.799Z,20.60
2023-04-16T18:35:07.321Z,25.70
2023-04-16T18:37:36.623Z,25.90
2023-04-16T18:40:07.833Z,21.80
2023-04-16T18:42:36.415Z,27.30
2023-04-16T18:45:21.181Z,23.70
2023-04-16T18:47:52.817Z,16.40
2023-04-16T18:50:21.162Z,24.50
2023-04-16T18:52:49.403Z,22.40
2023-04-16T18:55:18.032Z,20.80
2023-04-16T18:57:46.596Z,24.20
2023-04-16T19:00:18.482Z,24.20
2023-04-16T19:02:47.635Z,23.60
2023-04-16T19:05:16.136Z,17.60
2023-04-16T19:07:47.235Z,22.60
2023-04-16T19:10:15.767Z,25.90
2023-04-16T19:12:46.296Z,22.10
2023-04-16T19:15:14.957Z,20.20
2023-04-16T19:17:49.554Z,19.90
2023-04-16T19:20:18.414Z,15.30
2023-04-16T19:22:47.055Z,19.50
2023-04-16T19:25:15.499Z,18.90
2023-04-16T19:27:46.272Z,21.50
2023-04-16T19:30:16.136Z,21.40
2023-04-16T19:32:56.521Z,22.80
2023-04-16T19:35:28.816Z,18.60
2023-04-16T19:38:05.242Z,21.50
2023-04-16T19:40:33.497Z,19.90
2023-04-16T19:43:01.800Z,16.30
2023-04-16T19:45:30.287Z,19.30
2023-04-16T19:47:58.568Z,22.70
2023-04-16T19:50:32.489Z,22.30
2023-04-16T19:53:00.766Z,25.00
2023-04-16T19:55:34.050Z,23.60
2023-04-16T19:58:07.684Z,22.80
2023-04-16T20:00:43.421Z,18.90
2023-04-16T20:03:12.150Z,23.90
2023-04-16T20:05:40.775Z,21.40
2023-04-16T20:08:12.100Z,17.90
2023-04-16T20:10:42.918Z,27.40
2023-04-16T20:13:12.382Z,19.20
2023-04-16T20:15:40.747Z,27.90
2023-04-16T20:18:09.179Z,17.40
2023-04-16T20:20:38.264Z,19.80
2023-04-16T20:23:07.034Z,16.90
2023-04-16T20:25:35.566Z,30.00
2023-04-16T20:28:04.354Z,25.30
2023-04-16T20:30:40.420Z,25.20
2023-04-16T20:33:09.586Z,16.10
2023-04-16T20:35:41.194Z,25.00
2023-04-16T20:38:10.493Z,19.70
2023-04-16T20:40:47.409Z,20.10
2023-04-16T20:43:18.887Z,21.30
2023-04-16T20:45:47.338Z,23.70
2023-04-16T20:48:18.378Z,20.90
2023-04-16T20:50:46.553Z,27.50
2023-04-16T20:53:14.891Z,18.80
2023-04-16T20:55:46.733Z,15.40
2023-04-16T20:58:15.052Z,22.00
2023-04-16T21:00:49.983Z,17.60
2023-04-16T21:03:19.219Z,20.30
2023-04-16T21:05:56.173Z,22.60
2023-04-16T21:08:24.803Z,22.50
2023-04-16T21:10:53.093Z,24.50
2023-04-16T21:13:22.046Z,18.10
2023-04-16T21:15:52.448Z,20.10
2023-04-16T21:18:20.955Z,24.10
2023-04-16T21:20:49.334Z,20.90
2023-04-16T21:23:17.669Z,24.00
2023-04-16T21:25:46.348Z,20.60
2023-04-16T21:28:14.632Z,24.60
2023-04-16T21:30:43.513Z,21.30
2023-04-16T21:33:13.243Z,28.80
2023-04-16T21:35:41.690Z,22.20
2023-04-16T21:38:13.064Z,24.80
2023-04-16T21:40:41.443Z,22.00
2023-04-16T21:43:09.691Z,25.40
2023-04-16T21:45:38.086Z,19.40
2023-04-16T21:48:06.697Z,20.50
2023-04-16T21:50:39.289Z,19.70
2023-04-16T21:53:09.380Z,28.60
2023-04-16T21:55:38.036Z,19.00
2023-04-16T21:58:06.764Z,22.00
2023-04-16T22:00:35.191Z,18.90
2023-04-16T22:03:04.358Z,22.00
2023-04-16T22:05:33.415Z,21.20
2023-04-16T22:08:10.869Z,29.50
2023-04-16T22:10:50.943Z,26.20
2023-04-16T22:13:22.973Z,17.30
2023-04-16T22:15:51.602Z,24.20
2023-04-16T22:18:24.532Z,25.80
2023-04-16T22:20:56.486Z,22.80
2023-04-16T22:23:25.905Z,18.50
2023-04-16T22:25:56.140Z,22.40
2023-04-16T22:28:24.562Z,18.30
2023-04-16T22:30:52.901Z,17.30
2023-04-16T22:33:21.079Z,17.00
2023-04-16T22:35:50.064Z,20.50
2023-04-16T22:38:18.984Z,16.40
2023-04-16T22:40:49.150Z,13.50
2023-04-16T22:43:17.897Z,20.40
2023-04-16T22:45:49.199Z,18.40
2023-04-16T22:48:19.402Z,20.60
2023-04-16T22:50:48.807Z,19.90
2023-04-16T22:53:17.077Z,17.80
2023-04-16T22:55:45.727Z,20.90
2023-04-16T22:58:13.986Z,20.30
2023-04-16T23:00:42.254Z,20.50
2023-04-16T23:03:10.643Z,19.00
2023-04-16T23:05:39.377Z,21.70
2023-04-16T23:08:07.716Z,17.10
2023-04-16T23:10:37.124Z,17.70
2023-04-16T23:13:06.746Z,20.40
2023-04-16T23:15:35.102Z,19.90
2023-04-16T23:18:03.414Z,16.20
2023-04-16T23:20:31.682Z,17.80
2023-04-16T23:22:59.860Z,22.10
2023-04-16T23:25:28.049Z,19.80
2023-04-16T23:27:56.982Z,18.30
2023-04-16T23:30:25.391Z,18.20
2023-04-16T23:32:53.725Z,15.00
2023-04-16T23:35:23.045Z,27.80
2023-04-16T23:37:51.677Z,14.90
2023-04-16T23:40:20.504Z,17.60
2023-04-16T23:42:49.614Z,17.20
2023-04-16T23:45:18.654Z,15.60
2023-04-16T23:47:47.405Z,21.50
2023-04-16T23:50:15.687Z,20.10
2023-04-16T23:52:43.897Z,16.70
2023-04-16T23:55:12.283Z,20.00
2023-04-16T23:57:41.940Z,18.80
